Погода Харьковна неделю

Харьковская область, Украина

19 - 25 июня
  • 19июня
    Сегодня
    +19°
    +30°
    Ясно и безоблачно
    ВремяПогодаТемператураВлажностьДавлениеВетер, м/сВероятность осадков
    00:00Ясно и безоблачно+20°C88 %753 мм2.2 м/с2 %
    03:00Ясно и безоблачно+18°C90 %754 мм2.4 м/с2 %
    06:00Ясно и безоблачно+18°C89 %754 мм1.8 м/с2 %
    09:00Ясно и безоблачно+24°C69 %755 мм1.2 м/с2 %
    12:00Ясно и безоблачно+28°C55 %755 мм2.0 м/с3 %
    15:00Ясно и безоблачно+30°C52 %754 мм3.1 м/с2 %
    18:00Ясно и безоблачно+29°C53 %753 мм2.3 м/с2 %
    21:00Практически безоблачно+25°C80 %753 мм2.0 м/с2 %
  • 20июня
    Четверг
    +14°
    +33°
    Небольшая облачность, возможен дождь с грозой
    ВремяПогодаТемператураВлажностьДавлениеВетер, м/сВероятность осадков
    00:00Практически безоблачно+22°C87 %753 мм2.0 м/с2 %
    03:00Ясно и безоблачно+20°C87 %752 мм2.2 м/с2 %
    06:00Ясно и безоблачно+20°C75 %751 мм3.1 м/с2 %
    09:00Ясно и безоблачно+26°C64 %750 мм4.5 м/с2 %
    12:00Ясно и безоблачно+30°C47 %748 мм7.2 м/с3 %
    15:00Небольшая облачность, возможен дождь с грозой+29°C70 %747 мм5.9 м/с71 %
    18:00Пасмурно, дождь+18°C87 %748 мм6.5 м/с96 %
    21:00Ясно и безоблачно+17°C69 %750 мм6.2 м/с42 %
  • 21июня
    Пятница
    +14°
    +25°
    Ясно и безоблачно
    ВремяПогодаТемператураВлажностьДавлениеВетер, м/сВероятность осадков
    00:00Практически безоблачно+16°C66 %750 мм5.6 м/с5 %
    03:00Ясно и безоблачно+15°C74 %750 мм5.5 м/с7 %
    06:00Ясно и безоблачно+15°C76 %751 мм6.0 м/с6 %
    09:00Ясно и безоблачно+19°C61 %751 мм7.0 м/с5 %
    12:00Ясно и безоблачно+22°C48 %751 мм8.1 м/с2 %
    15:00Ясно и безоблачно+24°C46 %750 мм7.7 м/с2 %
    18:00Ясно и безоблачно+24°C51 %750 мм7.1 м/с2 %
    21:00Ясно и безоблачно+21°C62 %750 мм4.0 м/с2 %
  • 22июня
    Суббота
    +16°
    +27°
    Ясно и безоблачно
    ВремяПогодаТемператураВлажностьДавлениеВетер, м/сВероятность осадков
    00:00Ясно и безоблачно+17°C75 %750 мм2.9 м/с2 %
    03:00Ясно и безоблачно+16°C82 %750 мм3.2 м/с3 %
    06:00Ясно и безоблачно+15°C81 %750 мм3.2 м/с2 %
    09:00Ясно и безоблачно+21°C65 %750 мм3.5 м/с2 %
    12:00Ясно и безоблачно+24°C51 %750 мм4.1 м/с2 %
    15:00Ясно и безоблачно+26°C47 %750 мм3.9 м/с2 %
    18:00Ясно и безоблачно+26°C51 %749 мм3.6 м/с2 %
    21:00Ясно и безоблачно+22°C77 %749 мм2.0 м/с2 %
  • 23июня
    Воскресенье
    +18°
    +30°
    Облачно с прояснениями
    ВремяПогодаТемператураВлажностьДавлениеВетер, м/сВероятность осадков
    00:00Практически безоблачно+18°C88 %750 мм2.4 м/с2 %
    03:00Ясно и безоблачно+17°C94 %749 мм2.1 м/с2 %
    06:00Практически безоблачно+17°C89 %750 мм0.4 м/с2 %
    09:00Ясно и безоблачно+23°C62 %750 мм0.9 м/с2 %
    12:00Небольшая облачность+27°C48 %750 мм1.5 м/с8 %
    15:00Облачно с прояснениями+29°C50 %749 мм3.2 м/с16 %
    18:00Практически безоблачно+29°C52 %748 мм2.8 м/с20 %
    21:00Небольшая облачность, возможен дождь с грозой+24°C83 %749 мм0.9 м/с20 %
Мы используем cookies
Соглашаюсь